Terminal Aerodrome Forecast
Issued by NWS Pueblo, CO

Home | Current Version | Previous Version | Text Only | Print | Product List | Glossary On
Versions: 1 2 3 4 5 6 7 8 9 10 11 12 13 14 15 16 17 18 19 20 21 22 23 24 25 26 27 28
000
FTUS45 KPUB 202320
TAFCOS
TAF
KCOS 202320Z 2100/2124 01012KT P6SM VCTS SCT080CB BKN120
     FM210200 01008KT P6SM SCT100 BKN120
     FM210600 36007KT P6SM SCT120
     FM211500 15008KT P6SM SCT080 SCT120
     FM212100 16012KT P6SM VCTS SCT080CB BKN120=

USA.gov is the U.S. government's official web portal to all federal, state and local government web resources and services.